createdAt,value
2023-01-21T00:01:08.552Z,97162.00
2023-01-21T00:03:35.381Z,97163.00
2023-01-21T00:06:02.717Z,97164.00
2023-01-21T00:08:29.696Z,97162.00
2023-01-21T00:10:56.490Z,97157.00
2023-01-21T00:13:23.622Z,97169.00
2023-01-21T00:15:50.453Z,97165.00
2023-01-21T00:18:17.273Z,97164.00
2023-01-21T00:20:46.014Z,97164.00
2023-01-21T00:23:12.932Z,97154.00
2023-01-21T00:25:39.762Z,97159.00
2023-01-21T00:28:06.536Z,97155.00
2023-01-21T00:30:33.889Z,97152.00
2023-01-21T00:33:00.678Z,97153.00
2023-01-21T00:35:27.619Z,97157.00
2023-01-21T00:37:54.542Z,97158.00
2023-01-21T00:40:21.958Z,97156.00
2023-01-21T00:42:48.738Z,97157.00
2023-01-21T00:45:15.627Z,97167.00
2023-01-21T00:47:42.405Z,97155.00
2023-01-21T00:50:10.444Z,97163.00
2023-01-21T00:52:38.517Z,97167.00
2023-01-21T00:55:06.303Z,97161.00
2023-01-21T00:57:33.221Z,97162.00
2023-01-21T01:00:00.501Z,97161.00
2023-01-21T01:02:27.405Z,97162.00
2023-01-21T01:04:54.162Z,97162.00
2023-01-21T01:07:20.900Z,97151.00
2023-01-21T01:09:47.671Z,97149.00
2023-01-21T01:12:14.443Z,97142.00
2023-01-21T01:14:41.229Z,97157.00
2023-01-21T01:17:08.996Z,97163.00
2023-01-21T01:19:35.805Z,97165.00
2023-01-21T01:22:02.569Z,97168.00
2023-01-21T01:24:29.389Z,97174.00
2023-01-21T01:26:56.160Z,97173.00
2023-01-21T01:29:22.936Z,97177.00
2023-01-21T01:31:49.782Z,97183.00
2023-01-21T01:34:16.591Z,97176.00
2023-01-21T01:36:43.429Z,97175.00
2023-01-21T01:39:10.225Z,97182.00
2023-01-21T01:41:37.028Z,97183.00
2023-01-21T01:44:56.255Z,97192.00
2023-01-21T01:47:37.659Z,97189.00
2023-01-21T01:50:10.000Z,97183.00
2023-01-21T01:52:36.829Z,97185.00
2023-01-21T01:55:05.796Z,97189.00
2023-01-21T01:57:45.185Z,97195.00
2023-01-21T02:00:13.081Z,97184.00
2023-01-21T02:02:42.355Z,97183.00
2023-01-21T02:05:11.050Z,97185.00
2023-01-21T02:07:41.298Z,97197.00
2023-01-21T02:10:15.355Z,97198.00
2023-01-21T02:12:44.298Z,97194.00
2023-01-21T02:15:11.755Z,97204.00
2023-01-21T02:18:07.058Z,97184.00
2023-01-21T02:20:45.651Z,97186.00
2023-01-21T02:23:54.524Z,97197.00
2023-01-21T02:26:59.223Z,97196.00
2023-01-21T02:29:52.419Z,97197.00
2023-01-21T02:33:10.786Z,97200.00
2023-01-21T02:36:04.768Z,97204.00
2023-01-21T02:38:56.351Z,97209.00
2023-01-21T02:41:49.441Z,97217.00
2023-01-21T02:44:37.440Z,97217.00
2023-01-21T02:47:47.752Z,97212.00
2023-01-21T02:50:18.931Z,97216.00
2023-01-21T02:52:45.772Z,97210.00
2023-01-21T02:55:16.672Z,97225.00
2023-01-21T02:57:49.376Z,97216.00
2023-01-21T03:00:27.066Z,97208.00
2023-01-21T03:03:23.599Z,97213.00
2023-01-21T03:06:19.628Z,97215.00
2023-01-21T03:09:17.803Z,97221.00
2023-01-21T03:12:11.793Z,97217.00
2023-01-21T03:15:25.019Z,97227.00
2023-01-21T03:18:01.287Z,97216.00
2023-01-21T03:20:37.080Z,97215.00
2023-01-21T03:23:12.095Z,97215.00
2023-01-21T03:25:41.237Z,97221.00
2023-01-21T03:28:26.841Z,97222.00
2023-01-21T03:31:08.153Z,97220.00
2023-01-21T03:33:39.453Z,97210.00
2023-01-21T03:36:19.720Z,97206.00
2023-01-21T03:38:50.030Z,97210.00
2023-01-21T03:41:22.239Z,97208.00
2023-01-21T03:43:49.140Z,97209.00
2023-01-21T03:46:35.129Z,97210.00
2023-01-21T03:49:14.656Z,97217.00
2023-01-21T03:51:48.320Z,97219.00
2023-01-21T03:54:15.219Z,97221.00
2023-01-21T03:56:42.023Z,97220.00
2023-01-21T03:59:08.871Z,97221.00
2023-01-21T04:01:35.683Z,97228.00
2023-01-21T04:04:02.446Z,97225.00
2023-01-21T04:06:29.226Z,97229.00
2023-01-21T04:08:55.990Z,97226.00
2023-01-21T04:11:22.853Z,97225.00
2023-01-21T04:13:49.607Z,97229.00
2023-01-21T04:16:16.472Z,97232.00
2023-01-21T04:18:43.237Z,97233.00
2023-01-21T04:21:10.060Z,97242.00
2023-01-21T04:23:36.821Z,97246.00
2023-01-21T04:26:03.642Z,97241.00
2023-01-21T04:28:30.373Z,97240.00
2023-01-21T04:30:57.228Z,97246.00
2023-01-21T04:33:24.058Z,97248.00
2023-01-21T04:35:51.000Z,97242.00
2023-01-21T04:38:18.155Z,97253.00
2023-01-21T04:40:44.958Z,97252.00
2023-01-21T04:43:11.757Z,97256.00
2023-01-21T04:45:38.587Z,97258.00
2023-01-21T04:48:05.518Z,97255.00
2023-01-21T04:50:32.613Z,97255.00
2023-01-21T04:52:59.567Z,97254.00
2023-01-21T04:55:26.565Z,97258.00
2023-01-21T04:57:53.315Z,97263.00
2023-01-21T05:00:20.543Z,97270.00
2023-01-21T05:02:47.308Z,97270.00
2023-01-21T05:05:14.141Z,97270.00
2023-01-21T05:07:40.884Z,97267.00
2023-01-21T05:10:08.346Z,97276.00
2023-01-21T05:12:35.110Z,97274.00
2023-01-21T05:15:01.886Z,97273.00
2023-01-21T05:17:28.641Z,97279.00
2023-01-21T05:19:55.415Z,97287.00
2023-01-21T05:22:22.169Z,97288.00
2023-01-21T05:24:48.925Z,97298.00
2023-01-21T05:27:15.962Z,97300.00
2023-01-21T05:29:42.771Z,97293.00
2023-01-21T05:32:10.373Z,97298.00
2023-01-21T05:34:37.140Z,97304.00
2023-01-21T05:37:03.930Z,97310.00
2023-01-21T05:39:30.704Z,97299.00
2023-01-21T05:41:57.462Z,97306.00
2023-01-21T05:44:24.301Z,97306.00
2023-01-21T05:46:51.096Z,97306.00
2023-01-21T05:49:17.958Z,97315.00
2023-01-21T05:51:44.719Z,97311.00
2023-01-21T05:54:11.509Z,97318.00
2023-01-21T05:56:38.336Z,97317.00
2023-01-21T05:59:05.340Z,97322.00
2023-01-21T06:01:32.148Z,97321.00
2023-01-21T06:03:58.975Z,97320.00
2023-01-21T06:06:25.760Z,97324.00
2023-01-21T06:08:52.550Z,97332.00
2023-01-21T06:11:19.365Z,97326.00
2023-01-21T06:13:46.502Z,97334.00
2023-01-21T06:16:13.279Z,97337.00
2023-01-21T06:18:40.155Z,97336.00
2023-01-21T06:21:07.028Z,97340.00
2023-01-21T06:23:33.795Z,97337.00
2023-01-21T06:26:01.375Z,97336.00
2023-01-21T06:28:29.969Z,97340.00
2023-01-21T06:30:56.870Z,97347.00
2023-01-21T06:33:23.843Z,97351.00
2023-01-21T06:35:50.845Z,97340.00
2023-01-21T06:38:17.734Z,97345.00
2023-01-21T06:40:44.543Z,97352.00
2023-01-21T06:43:11.349Z,97356.00
2023-01-21T06:45:38.242Z,97357.00
2023-01-21T06:48:05.298Z,97362.00
2023-01-21T06:50:32.068Z,97374.00
2023-01-21T06:52:58.819Z,97366.00
2023-01-21T06:55:25.748Z,97376.00
2023-01-21T06:57:52.660Z,97369.00
2023-01-21T07:00:20.316Z,97379.00
2023-01-21T07:02:47.254Z,97385.00
2023-01-21T07:05:15.288Z,97386.00
2023-01-21T07:07:42.295Z,97382.00
2023-01-21T07:10:10.190Z,97395.00
2023-01-21T07:12:37.000Z,97397.00
2023-01-21T07:15:04.427Z,97402.00
2023-01-21T07:17:31.181Z,97396.00
2023-01-21T07:19:58.009Z,97400.00
2023-01-21T07:22:24.846Z,97408.00
2023-01-21T07:24:51.665Z,97402.00
2023-01-21T07:27:18.558Z,97408.00
2023-01-21T07:29:45.338Z,97408.00
2023-01-21T07:32:12.134Z,97410.00
2023-01-21T07:34:38.920Z,97406.00
2023-01-21T07:37:05.747Z,97413.00
2023-01-21T07:39:32.651Z,97418.00
2023-01-21T07:41:59.488Z,97424.00
2023-01-21T07:44:26.248Z,97423.00
2023-01-21T07:46:53.339Z,97422.00
2023-01-21T07:49:20.138Z,97430.00
2023-01-21T07:51:47.607Z,97430.00
2023-01-21T07:54:15.376Z,97434.00
2023-01-21T07:56:42.405Z,97425.00
2023-01-21T07:59:11.594Z,97433.00
2023-01-21T08:01:38.671Z,97428.00
2023-01-21T08:04:07.026Z,97429.00
2023-01-21T08:06:33.932Z,97426.00
2023-01-21T08:09:00.714Z,97431.00
2023-01-21T08:11:27.477Z,97431.00
2023-01-21T08:13:54.239Z,97429.00
2023-01-21T08:16:21.445Z,97428.00
2023-01-21T08:18:48.228Z,97432.00
2023-01-21T08:21:14.985Z,97440.00
2023-01-21T08:23:41.780Z,97445.00
2023-01-21T08:26:08.594Z,97446.00
2023-01-21T08:28:35.389Z,97451.00
2023-01-21T08:31:11.981Z,97452.00
2023-01-21T08:33:39.361Z,97454.00
2023-01-21T08:36:08.322Z,97445.00
2023-01-21T08:38:35.423Z,97454.00
2023-01-21T08:41:02.298Z,97466.00
2023-01-21T08:43:29.325Z,97468.00
2023-01-21T08:45:58.418Z,97463.00
2023-01-21T08:48:25.345Z,97462.00
2023-01-21T08:50:52.147Z,97464.00
2023-01-21T08:53:19.043Z,97466.00
2023-01-21T08:55:45.906Z,97469.00
2023-01-21T08:58:12.663Z,97474.00
2023-01-21T09:00:41.642Z,97471.00
2023-01-21T09:03:08.782Z,97479.00
2023-01-21T09:05:35.657Z,97476.00
2023-01-21T09:08:02.495Z,97482.00
2023-01-21T09:10:47.686Z,97481.00
2023-01-21T09:13:16.232Z,97492.00
2023-01-21T09:15:44.038Z,97482.00
2023-01-21T09:18:11.389Z,97485.00
2023-01-21T09:20:39.550Z,97487.00
2023-01-21T09:23:24.321Z,97487.00
2023-01-21T09:26:00.485Z,97495.00
2023-01-21T09:28:27.861Z,97494.00
2023-01-21T09:31:00.222Z,97490.00
2023-01-21T09:33:28.942Z,97502.00
2023-01-21T09:35:57.676Z,97499.00
2023-01-21T09:38:25.643Z,97510.00
2023-01-21T09:40:53.427Z,97509.00
2023-01-21T09:43:25.090Z,97500.00
2023-01-21T09:45:56.326Z,97510.00
2023-01-21T09:48:36.550Z,97515.00
2023-01-21T09:51:45.161Z,97509.00
2023-01-21T09:54:20.943Z,97512.00
2023-01-21T09:57:18.720Z,97515.00
2023-01-21T10:00:19.482Z,97519.00
2023-01-21T10:03:09.530Z,97521.00
2023-01-21T10:06:09.349Z,97517.00
2023-01-21T10:09:02.764Z,97530.00
2023-01-21T10:12:05.132Z,97503.00
2023-01-21T10:15:20.962Z,97510.00
2023-01-21T10:17:59.637Z,97518.00
2023-01-21T10:20:40.928Z,97516.00
2023-01-21T10:23:34.732Z,97512.00
2023-01-21T10:26:08.183Z,97512.00
2023-01-21T10:28:40.615Z,97520.00
2023-01-21T10:31:26.872Z,97509.00
2023-01-21T10:33:54.110Z,97510.00
2023-01-21T10:36:42.234Z,97515.00
2023-01-21T10:39:35.099Z,97512.00
2023-01-21T10:42:35.697Z,97514.00
2023-01-21T10:45:26.609Z,97502.00
2023-01-21T10:48:24.852Z,97502.00
2023-01-21T10:51:00.968Z,97511.00
2023-01-21T10:53:43.199Z,97504.00
2023-01-21T10:57:02.847Z,97503.00
2023-01-21T10:59:33.480Z,97501.00
2023-01-21T11:02:10.020Z,97511.00
2023-01-21T11:04:39.980Z,97498.00
2023-01-21T11:07:13.024Z,97503.00
2023-01-21T11:09:45.197Z,97495.00
2023-01-21T11:12:22.189Z,97510.00
2023-01-21T11:15:02.479Z,97514.00
2023-01-21T11:17:39.996Z,97509.00
2023-01-21T11:20:27.605Z,97495.00
2023-01-21T11:22:54.526Z,97496.00
2023-01-21T11:25:36.205Z,97495.00
2023-01-21T11:28:04.705Z,97481.00
2023-01-21T11:30:51.045Z,97482.00
2023-01-21T11:33:24.970Z,97486.00
2023-01-21T11:35:54.408Z,97488.00
2023-01-21T11:38:34.475Z,97483.00
2023-01-21T11:41:22.695Z,97472.00
2023-01-21T11:44:07.444Z,97475.00
2023-01-21T11:46:40.209Z,97469.00
2023-01-21T11:49:06.860Z,97464.00
2023-01-21T11:51:39.502Z,97474.00
2023-01-21T11:54:22.141Z,97459.00
2023-01-21T11:57:01.611Z,97462.00
2023-01-21T11:59:36.314Z,97464.00
2023-01-21T12:02:29.473Z,97465.00
2023-01-21T12:05:31.896Z,97460.00
2023-01-21T12:07:59.301Z,97465.00
2023-01-21T12:10:42.894Z,97461.00
2023-01-21T12:13:36.658Z,97465.00
2023-01-21T12:16:18.989Z,97463.00
2023-01-21T12:19:18.221Z,97453.00
2023-01-21T12:22:26.593Z,97454.00
2023-01-21T12:25:18.038Z,97458.00
2023-01-21T12:28:17.414Z,97460.00
2023-01-21T12:31:23.576Z,97456.00
2023-01-21T12:34:19.399Z,97459.00
2023-01-21T12:37:03.231Z,97459.00
2023-01-21T12:39:34.749Z,97465.00
2023-01-21T12:42:09.717Z,97461.00
2023-01-21T12:44:49.326Z,97461.00
2023-01-21T12:47:39.665Z,97456.00
2023-01-21T12:50:30.509Z,97466.00
2023-01-21T12:53:09.128Z,97462.00
2023-01-21T12:56:07.374Z,97471.00
2023-01-21T12:58:41.971Z,97464.00
2023-01-21T13:01:21.441Z,97476.00
2023-01-21T13:04:04.991Z,97462.00
2023-01-21T13:06:54.336Z,97468.00
2023-01-21T13:09:56.579Z,97461.00
2023-01-21T13:12:26.475Z,97453.00
2023-01-21T13:15:04.724Z,97466.00
2023-01-21T13:17:35.300Z,97467.00
2023-01-21T13:20:14.124Z,97462.00
2023-01-21T13:23:36.949Z,97478.00
2023-01-21T13:26:14.649Z,97471.00
2023-01-21T13:29:09.216Z,97483.00
2023-01-21T13:32:22.676Z,97484.00
2023-01-21T13:35:36.220Z,97484.00
2023-01-21T13:38:24.555Z,97481.00
2023-01-21T13:41:00.529Z,97488.00
2023-01-21T13:43:54.735Z,97496.00
2023-01-21T13:46:52.575Z,97494.00
2023-01-21T13:50:06.090Z,97500.00
2023-01-21T13:53:10.928Z,97493.00
2023-01-21T13:56:03.265Z,97502.00
2023-01-21T13:58:37.955Z,97502.00
2023-01-21T14:01:30.105Z,97504.00
2023-01-21T14:04:20.327Z,97511.00
2023-01-21T14:07:01.808Z,97510.00
2023-01-21T14:09:28.497Z,97504.00
2023-01-21T14:12:19.618Z,97505.00
2023-01-21T14:15:19.789Z,97514.00
2023-01-21T14:18:20.600Z,97509.00
2023-01-21T14:21:08.810Z,97518.00
2023-01-21T14:24:20.009Z,97520.00
2023-01-21T14:27:24.166Z,97515.00
2023-01-21T14:30:07.011Z,97524.00
2023-01-21T14:32:54.488Z,97519.00
2023-01-21T14:35:59.928Z,97514.00
2023-01-21T14:38:34.014Z,97528.00
2023-01-21T14:41:10.479Z,97536.00
2023-01-21T14:43:37.823Z,97536.00
2023-01-21T14:46:28.651Z,97542.00
2023-01-21T14:49:07.591Z,97547.00
2023-01-21T14:51:52.522Z,97544.00
2023-01-21T14:54:25.547Z,97540.00
2023-01-21T14:57:17.290Z,97536.00
2023-01-21T14:59:46.563Z,97533.00
2023-01-21T15:02:36.414Z,97537.00
2023-01-21T15:05:10.955Z,97548.00
2023-01-21T15:07:44.823Z,97551.00
2023-01-21T15:10:39.329Z,97554.00
2023-01-21T15:13:32.669Z,97553.00
2023-01-21T15:16:42.553Z,97558.00
2023-01-21T15:19:24.496Z,97546.00
2023-01-21T15:22:03.686Z,97554.00
2023-01-21T15:24:36.233Z,97562.00
2023-01-21T15:27:27.942Z,97558.00
2023-01-21T15:29:54.632Z,97566.00
2023-01-21T15:32:47.925Z,97563.00
2023-01-21T15:35:36.362Z,97561.00
2023-01-21T15:38:10.596Z,97579.00
2023-01-21T15:40:42.174Z,97580.00
2023-01-21T15:43:39.185Z,97579.00
2023-01-21T15:46:28.927Z,97583.00
2023-01-21T15:49:14.166Z,97594.00
2023-01-21T15:52:15.340Z,97581.00
2023-01-21T15:55:25.691Z,97584.00
2023-01-21T15:58:16.570Z,97592.00
2023-01-21T16:00:59.169Z,97589.00
2023-01-21T16:03:33.137Z,97589.00
2023-01-21T16:06:19.516Z,97589.00
2023-01-21T16:09:03.055Z,97600.00
2023-01-21T16:11:57.205Z,97607.00
2023-01-21T16:14:23.837Z,97602.00
2023-01-21T16:17:36.738Z,97612.00
2023-01-21T16:20:07.400Z,97621.00
2023-01-21T16:22:38.688Z,97612.00
2023-01-21T16:25:13.553Z,97629.00
2023-01-21T16:27:47.170Z,97619.00
2023-01-21T16:30:19.597Z,97621.00
2023-01-21T16:32:47.025Z,97622.00
2023-01-21T16:35:14.347Z,97622.00
2023-01-21T16:37:43.881Z,97622.00
2023-01-21T16:40:29.851Z,97623.00
2023-01-21T16:43:25.461Z,97629.00
2023-01-21T16:46:05.427Z,97625.00
2023-01-21T16:48:33.964Z,97629.00
2023-01-21T16:51:01.544Z,97624.00
2023-01-21T16:53:28.573Z,97631.00
2023-01-21T16:55:58.360Z,97633.00
2023-01-21T16:58:31.337Z,97630.00
2023-01-21T17:01:18.162Z,97625.00
2023-01-21T17:03:47.404Z,97624.00
2023-01-21T17:06:29.786Z,97619.00
2023-01-21T17:09:05.044Z,97629.00
2023-01-21T17:11:34.294Z,97627.00
2023-01-21T17:14:07.718Z,97630.00
2023-01-21T17:16:36.904Z,97635.00
2023-01-21T17:19:13.948Z,97635.00
2023-01-21T17:21:49.910Z,97628.00
2023-01-21T17:24:31.951Z,97635.00
2023-01-21T17:27:12.076Z,97630.00
2023-01-21T17:29:39.608Z,97640.00
2023-01-21T17:32:32.451Z,97644.00
2023-01-21T17:35:21.172Z,97642.00
2023-01-21T17:37:59.440Z,97651.00
2023-01-21T17:40:27.503Z,97651.00
2023-01-21T17:42:55.087Z,97649.00
2023-01-21T17:45:31.255Z,97656.00
2023-01-21T17:48:09.569Z,97656.00
2023-01-21T17:50:44.736Z,97654.00
2023-01-21T17:53:22.993Z,97658.00
2023-01-21T17:56:04.664Z,97661.00
2023-01-21T17:58:31.422Z,97661.00
2023-01-21T18:01:02.399Z,97665.00
2023-01-21T18:03:29.350Z,97658.00
2023-01-21T18:05:56.999Z,97666.00
2023-01-21T18:08:24.592Z,97665.00
2023-01-21T18:10:51.429Z,97669.00
2023-01-21T18:13:20.492Z,97660.00
2023-01-21T18:15:51.746Z,97659.00
2023-01-21T18:18:26.367Z,97661.00
2023-01-21T18:20:53.513Z,97665.00
2023-01-21T18:23:20.421Z,97673.00
2023-01-21T18:25:50.748Z,97677.00
2023-01-21T18:28:31.440Z,97666.00
2023-01-21T18:30:59.613Z,97669.00
2023-01-21T18:33:26.772Z,97672.00
2023-01-21T18:35:53.693Z,97659.00
2023-01-21T18:38:27.228Z,97662.00
2023-01-21T18:40:57.742Z,97679.00
2023-01-21T18:43:25.738Z,97668.00
2023-01-21T18:45:54.412Z,97673.00
2023-01-21T18:48:28.200Z,97677.00
2023-01-21T18:50:55.597Z,97667.00
2023-01-21T18:53:22.410Z,97675.00
2023-01-21T18:55:53.816Z,97681.00
2023-01-21T18:58:20.776Z,97682.00
2023-01-21T19:00:47.829Z,97680.00
2023-01-21T19:03:15.212Z,97677.00
2023-01-21T19:05:45.204Z,97680.00
2023-01-21T19:08:27.613Z,97682.00
2023-01-21T19:10:55.199Z,97685.00
2023-01-21T19:13:21.995Z,97679.00
2023-01-21T19:15:49.149Z,97684.00
2023-01-21T19:18:16.717Z,97682.00
2023-01-21T19:20:44.053Z,97679.00
2023-01-21T19:23:18.316Z,97669.00
2023-01-21T19:25:52.625Z,97677.00
2023-01-21T19:28:19.919Z,97682.00
2023-01-21T19:30:49.396Z,97683.00
2023-01-21T19:33:16.586Z,97674.00
2023-01-21T19:35:45.847Z,97685.00
2023-01-21T19:38:19.355Z,97682.00
2023-01-21T19:40:46.741Z,97673.00
2023-01-21T19:43:20.451Z,97671.00
2023-01-21T19:45:49.452Z,97684.00
2023-01-21T19:48:19.338Z,97684.00
2023-01-21T19:50:46.298Z,97680.00
2023-01-21T19:53:20.883Z,97682.00
2023-01-21T19:55:49.631Z,97683.00
2023-01-21T19:58:25.855Z,97676.00
2023-01-21T20:00:53.728Z,97682.00
2023-01-21T20:03:23.879Z,97674.00
2023-01-21T20:05:59.379Z,97677.00
2023-01-21T20:08:29.258Z,97670.00
2023-01-21T20:10:56.780Z,97683.00
2023-01-21T20:13:24.142Z,97681.00
2023-01-21T20:15:52.533Z,97685.00
2023-01-21T20:18:20.369Z,97684.00
2023-01-21T20:20:47.143Z,97675.00
2023-01-21T20:23:16.693Z,97674.00
2023-01-21T20:25:45.762Z,97680.00
2023-01-21T20:28:30.095Z,97676.00
2023-01-21T20:30:57.015Z,97683.00
2023-01-21T20:33:26.467Z,97677.00
2023-01-21T20:35:56.041Z,97676.00
2023-01-21T20:38:36.058Z,97676.00
2023-01-21T20:41:05.190Z,97669.00
2023-01-21T20:43:31.990Z,97666.00
2023-01-21T20:46:03.116Z,97670.00
2023-01-21T20:48:35.254Z,97672.00
2023-01-21T20:51:03.141Z,97667.00
2023-01-21T20:53:30.785Z,97675.00
2023-01-21T20:56:00.760Z,97672.00
2023-01-21T20:58:28.131Z,97686.00
2023-01-21T21:00:55.149Z,97682.00
2023-01-21T21:03:22.002Z,97686.00
2023-01-21T21:05:49.416Z,97689.00
2023-01-21T21:08:19.623Z,97696.00
2023-01-21T21:10:47.456Z,97698.00
2023-01-21T21:13:14.665Z,97695.00
2023-01-21T21:15:43.144Z,97698.00
2023-01-21T21:18:14.630Z,97698.00
2023-01-21T21:20:42.113Z,97692.00
2023-01-21T21:23:16.711Z,97685.00
2023-01-21T21:25:48.036Z,97686.00
2023-01-21T21:28:17.399Z,97685.00
2023-01-21T21:30:44.801Z,97689.00
2023-01-21T21:33:20.509Z,97690.00
2023-01-21T21:35:48.274Z,97698.00
2023-01-21T21:38:18.326Z,97694.00
2023-01-21T21:40:47.237Z,97693.00
2023-01-21T21:43:35.336Z,97697.00
2023-01-21T21:46:28.856Z,97700.00
2023-01-21T21:48:55.843Z,97693.00
2023-01-21T21:51:23.271Z,97698.00
2023-01-21T21:53:50.552Z,97703.00
2023-01-21T21:56:21.585Z,97697.00
2023-01-21T21:58:49.868Z,97688.00
2023-01-21T22:01:23.451Z,97683.00
2023-01-21T22:03:50.377Z,97685.00
2023-01-21T22:06:20.162Z,97694.00
2023-01-21T22:08:47.590Z,97694.00
2023-01-21T22:11:19.377Z,97690.00
2023-01-21T22:13:50.003Z,97688.00
2023-01-21T22:16:21.902Z,97691.00
2023-01-21T22:18:48.717Z,97688.00
2023-01-21T22:21:22.289Z,97690.00
2023-01-21T22:23:49.851Z,97679.00
2023-01-21T22:26:24.136Z,97686.00
2023-01-21T22:28:51.621Z,97685.00
2023-01-21T22:31:31.178Z,97689.00
2023-01-21T22:33:59.991Z,97685.00
2023-01-21T22:36:30.118Z,97679.00
2023-01-21T22:38:57.211Z,97676.00
2023-01-21T22:41:25.100Z,97679.00
2023-01-21T22:43:52.623Z,97677.00
2023-01-21T22:46:26.403Z,97668.00
2023-01-21T22:48:53.964Z,97662.00
2023-01-21T22:51:23.382Z,97668.00
2023-01-21T22:53:50.712Z,97658.00
2023-01-21T22:56:39.938Z,97661.00
2023-01-21T22:59:10.693Z,97653.00
2023-01-21T23:01:37.584Z,97660.00
2023-01-21T23:04:04.505Z,97649.00
2023-01-21T23:06:31.282Z,97659.00
2023-01-21T23:08:58.076Z,97656.00
2023-01-21T23:11:24.861Z,97645.00
2023-01-21T23:13:53.217Z,97652.00
2023-01-21T23:16:21.188Z,97649.00
2023-01-21T23:18:48.784Z,97650.00
2023-01-21T23:21:22.187Z,97647.00
2023-01-21T23:23:49.821Z,97646.00
2023-01-21T23:26:19.900Z,97643.00
2023-01-21T23:28:47.209Z,97637.00
2023-01-21T23:31:17.294Z,97640.00
2023-01-21T23:33:44.648Z,97647.00
2023-01-21T23:36:15.823Z,97644.00
2023-01-21T23:38:43.177Z,97647.00
2023-01-21T23:41:13.853Z,97639.00
2023-01-21T23:43:41.007Z,97634.00
2023-01-21T23:46:16.224Z,97638.00
2023-01-21T23:48:43.126Z,97635.00
2023-01-21T23:51:13.654Z,97638.00
2023-01-21T23:53:40.721Z,97635.00
2023-01-21T23:56:23.024Z,97639.00
2023-01-21T23:58:50.805Z,97637.00
